Time;durP1;ratioP1;P1;durP2;ratioP2;P2;SDS_P1;SDS_P2;PMS_P1;PMS_P2;Temp;Humidity;BMP_temperature;BMP_pressure;BME280_temperature;BME280_humidity;BME280_pressure;Samples;Min_cycle;Max_cycle;Signal;HPM_P1;HPM_P2
2022/05/31 00:01:20;;;;;;;14.60;12.00;;;10.90;99.90;;;;;;5075762;28;20479;-68
2022/05/31 00:03:47;;;;;;;14.23;12.83;;;10.90;99.90;;;;;;5070222;28;20774;-67
2022/05/31 00:06:15;;;;;;;17.47;12.60;;;10.80;99.90;;;;;;5077298;28;20455;-67
2022/05/31 00:08:42;;;;;;;16.50;13.90;;;10.80;99.90;;;;;;5079665;28;20493;-68
2022/05/31 00:11:11;;;;;;;16.07;14.73;;;10.80;99.90;;;;;;5077429;28;20482;-68
2022/05/31 00:13:38;;;;;;;14.10;12.90;;;10.70;99.90;;;;;;5072650;28;20863;-68
2022/05/31 00:16:06;;;;;;;15.60;14.10;;;10.70;99.90;;;;;;5077032;28;20467;-67
2022/05/31 00:18:33;;;;;;;16.50;14.90;;;10.70;99.90;;;;;;5075562;28;20809;-67
2022/05/31 00:21:00;;;;;;;17.17;14.77;;;10.70;99.90;;;;;;5081352;28;21058;-68
2022/05/31 00:23:28;;;;;;;15.43;13.97;;;10.80;99.90;;;;;;5077750;28;20466;-67
2022/05/31 00:25:54;;;;;;;15.63;14.43;;;10.80;99.90;;;;;;5074819;28;20469;-66
2022/05/31 00:28:24;;;;;;;18.33;14.93;;;10.80;99.90;;;;;;5074648;28;20469;-66
2022/05/31 00:30:51;;;;;;;20.03;15.27;;;10.90;99.90;;;;;;5077070;28;20497;-67
2022/05/31 00:33:19;;;;;;;28.00;15.43;;;10.90;99.90;;;;;;5073319;28;20473;-67
2022/05/31 00:35:48;;;;;;;17.50;16.00;;;10.90;99.90;;;;;;5078622;28;21064;-68
2022/05/31 00:38:16;;;;;;;21.97;16.27;;;10.90;99.90;;;;;;5078150;28;20533;-67
2022/05/31 00:40:42;;;;;;;18.23;16.27;;;10.90;99.90;;;;;;5079162;28;20458;-67
2022/05/31 00:43:12;;;;;;;23.97;16.27;;;10.80;99.90;;;;;;5075517;28;21240;-67
2022/05/31 00:45:47;;;;;;;17.30;15.53;;;10.80;99.90;;;;;;5072543;28;20482;-67
2022/05/31 00:48:19;;;;;;;27.93;16.60;;;10.80;99.90;;;;;;5075828;28;20477;-66
2022/05/31 00:50:49;;;;;;;17.87;14.47;;;10.80;99.90;;;;;;5077275;28;20825;-68
2022/05/31 00:53:20;;;;;;;22.67;15.67;;;10.80;99.90;;;;;;5075057;28;20457;-66
2022/05/31 00:55:50;;;;;;;22.37;16.37;;;10.90;99.90;;;;;;5074794;28;20473;-67
2022/05/31 00:58:20;;;;;;;18.87;15.93;;;10.80;99.90;;;;;;5072867;28;20464;-66
2022/05/31 01:00:50;;;;;;;19.37;17.33;;;10.80;99.90;;;;;;5074795;28;20461;-66
2022/05/31 01:03:20;;;;;;;18.67;16.60;;;10.90;99.90;;;;;;5074570;28;20462;-67
2022/05/31 01:05:47;;;;;;;19.07;17.20;;;11.00;99.90;;;;;;5079263;28;20835;-66
2022/05/31 01:08:15;;;;;;;25.13;17.03;;;11.00;99.90;;;;;;5079460;28;20458;-67
2022/05/31 01:10:43;;;;;;;19.77;17.63;;;11.00;99.90;;;;;;5082119;28;20491;-66
2022/05/31 01:13:14;;;;;;;19.50;17.53;;;11.00;99.90;;;;;;5070875;28;20462;-67
2022/05/31 01:15:43;;;;;;;18.83;16.97;;;11.00;99.90;;;;;;5077372;28;20848;-67
2022/05/31 01:18:12;;;;;;;21.13;18.50;;;11.00;99.90;;;;;;5081384;28;20525;-67
2022/05/31 01:20:41;;;;;;;22.17;17.40;;;11.00;99.90;;;;;;5080531;28;20454;-67
2022/05/31 01:23:15;;;;;;;20.20;17.30;;;11.00;99.90;;;;;;5076618;28;20831;-67
2022/05/31 01:25:53;;;;;;;24.80;17.37;;;11.10;99.90;;;;;;5074322;28;20472;-68
2022/05/31 01:28:32;;;;;;;20.77;18.57;;;11.10;99.90;;;;;;5075535;28;20469;-67
2022/05/31 01:31:03;;;;;;;20.03;17.70;;;11.10;99.90;;;;;;5074577;28;20463;-67
2022/05/31 01:33:35;;;;;;;20.20;18.03;;;11.20;99.90;;;;;;5081440;28;20541;-67
2022/05/31 01:36:10;;;;;;;18.67;16.90;;;11.20;99.90;;;;;;5074459;28;21471;-66
2022/05/31 01:38:41;;;;;;;27.17;17.47;;;11.40;99.90;;;;;;5077378;28;20465;-67
2022/05/31 01:41:19;;;;;;;18.83;17.23;;;11.50;99.90;;;;;;5087580;28;20465;-66
2022/05/31 01:43:47;;;;;;;19.10;17.20;;;11.50;99.90;;;;;;5073301;28;20478;-68
2022/05/31 01:46:18;;;;;;;19.87;17.67;;;11.50;99.90;;;;;;5079288;28;20485;-68
2022/05/31 01:48:45;;;;;;;20.00;18.00;;;11.40;99.90;;;;;;5077852;28;20477;-67
2022/05/31 01:51:13;;;;;;;18.83;17.00;;;11.40;99.90;;;;;;5076359;28;20471;-66
2022/05/31 01:53:41;;;;;;;19.53;17.27;;;11.40;99.90;;;;;;5086843;28;20469;-67
2022/05/31 01:56:10;;;;;;;19.47;17.40;;;11.40;99.90;;;;;;5080192;28;20465;-67
2022/05/31 01:58:40;;;;;;;19.23;17.53;;;11.40;99.90;;;;;;5081660;28;20468;-67
2022/05/31 02:01:09;;;;;;;20.20;16.60;;;11.40;99.90;;;;;;5074830;28;20548;-67
2022/05/31 02:03:38;;;;;;;19.17;17.47;;;11.30;99.90;;;;;;5080243;28;20980;-68
2022/05/31 02:06:05;;;;;;;18.30;16.53;;;11.40;99.90;;;;;;5077737;28;20544;-67
2022/05/31 02:08:34;;;;;;;17.90;16.43;;;11.40;99.90;;;;;;5083436;28;20485;-67
2022/05/31 02:11:01;;;;;;;19.47;17.77;;;11.30;99.90;;;;;;5074448;28;20482;-68
2022/05/31 02:13:28;;;;;;;19.63;17.77;;;11.40;99.90;;;;;;5074229;28;20455;-67
2022/05/31 02:15:56;;;;;;;18.70;17.30;;;11.40;99.90;;;;;;5075552;28;20546;-67
2022/05/31 02:19:15;;;;;;;18.90;16.83;;;11.60;99.90;;;;;;5070749;28;20587;-67
2022/05/31 02:21:10;;;;;;;18.97;17.03;;;11.50;99.90;;;;;;5074300;28;20550;-67
2022/05/31 02:23:39;;;;;;;18.63;17.00;;;11.60;99.90;;;;;;5080969;28;20469;-67
2022/05/31 02:26:06;;;;;;;19.97;18.07;;;11.50;99.90;;;;;;5079090;28;20828;-67
2022/05/31 02:28:33;;;;;;;19.03;17.43;;;11.40;99.90;;;;;;5081896;28;20477;-67
2022/05/31 02:31:14;;;;;;;19.27;17.57;;;11.40;99.90;;;;;;5079708;28;20968;-67
2022/05/31 02:33:42;;;;;;;18.60;16.90;;;11.40;99.90;;;;;;5075353;28;20955;-68
2022/05/31 02:36:09;;;;;;;18.67;17.00;;;11.30;99.90;;;;;;5079876;28;20485;-68
2022/05/31 02:38:38;;;;;;;19.80;17.90;;;11.20;99.90;;;;;;5076974;28;21040;-66
2022/05/31 02:41:05;;;;;;;19.93;18.13;;;11.20;99.90;;;;;;5081142;28;20485;-67
2022/05/31 02:43:32;;;;;;;20.00;18.27;;;11.10;99.90;;;;;;5079422;28;20468;-67
2022/05/31 02:46:00;;;;;;;18.70;17.17;;;11.10;99.90;;;;;;5078168;28;20493;-67
2022/05/31 02:48:27;;;;;;;18.73;17.13;;;11.00;99.90;;;;;;5070845;28;20853;-67
2022/05/31 02:50:54;;;;;;;18.60;17.23;;;11.10;99.90;;;;;;5081292;28;20838;-68
2022/05/31 02:53:21;;;;;;;18.50;17.00;;;11.10;99.90;;;;;;5077448;28;21044;-67
2022/05/31 02:55:50;;;;;;;17.20;15.97;;;11.20;99.90;;;;;;5078294;28;20543;-68
2022/05/31 02:58:17;;;;;;;17.60;16.10;;;11.20;99.90;;;;;;5072526;28;20554;-69
2022/05/31 03:00:44;;;;;;;19.20;17.60;;;11.20;99.90;;;;;;5075383;28;20471;-69
2022/05/31 03:03:10;;;;;;;19.20;17.73;;;11.20;99.90;;;;;;5081378;28;20464;-68
2022/05/31 03:05:37;;;;;;;18.23;16.50;;;11.20;99.90;;;;;;5075714;28;20467;-68
2022/05/31 03:08:05;;;;;;;17.67;16.40;;;11.30;99.90;;;;;;5073581;28;21204;-68
2022/05/31 03:10:37;;;;;;;18.03;16.63;;;11.40;99.90;;;;;;5079080;28;20526;-68
2022/05/31 03:13:06;;;;;;;18.07;16.40;;;11.60;99.90;;;;;;5079394;28;20475;-70
2022/05/31 03:15:35;;;;;;;17.53;15.90;;;11.60;99.90;;;;;;5081021;28;20662;-69
2022/05/31 03:18:07;;;;;;;16.47;15.37;;;11.50;99.90;;;;;;5080316;28;20465;-69
2022/05/31 03:20:40;;;;;;;21.40;17.40;;;11.50;99.90;;;;;;5076886;28;20466;-66
2022/05/31 03:23:14;;;;;;;17.70;16.27;;;11.50;99.90;;;;;;5072581;28;20469;-67
2022/05/31 03:25:43;;;;;;;19.10;17.60;;;11.60;99.90;;;;;;5075974;28;20620;-66
2022/05/31 03:28:13;;;;;;;16.73;15.60;;;11.50;99.90;;;;;;5077544;28;20475;-66
2022/05/31 03:30:40;;;;;;;18.73;16.93;;;11.60;99.90;;;;;;5070788;28;20490;-66
2022/05/31 03:33:09;;;;;;;17.77;15.97;;;11.60;99.90;;;;;;5074429;28;20458;-69
2022/05/31 03:35:36;;;;;;;17.80;16.40;;;11.70;99.90;;;;;;5074093;28;20462;-68
2022/05/31 03:38:04;;;;;;;18.03;16.13;;;11.80;99.90;;;;;;5076708;28;20466;-67
2022/05/31 03:43:17;;;;;;;20.07;17.27;;;11.70;99.90;;;;;;5082945;28;20456;-66
2022/05/31 03:45:44;;;;;;;18.87;17.20;;;11.60;99.90;;;;;;5077187;28;20519;-67
2022/05/31 03:48:12;;;;;;;20.27;18.33;;;11.60;99.90;;;;;;5070152;28;20465;-66
2022/05/31 03:50:40;;;;;;;19.97;18.37;;;11.50;99.90;;;;;;5072766;28;20559;-66
2022/05/31 03:53:07;;;;;;;21.23;18.23;;;11.40;99.90;;;;;;5076050;28;20459;-69
2022/05/31 03:55:38;;;;;;;21.43;19.27;;;11.30;99.90;;;;;;5076762;28;20751;-68
2022/05/31 03:58:05;;;;;;;21.20;19.20;;;11.30;99.90;;;;;;5070517;28;20458;-68
2022/05/31 04:00:34;;;;;;;21.83;19.93;;;11.20;99.90;;;;;;5078267;28;21024;-68
2022/05/31 04:03:01;;;;;;;23.83;19.97;;;11.10;99.90;;;;;;5054765;28;20471;-68
2022/05/31 04:05:29;;;;;;;22.90;18.67;;;11.20;99.90;;;;;;5047455;28;20470;-68
2022/05/31 04:08:01;;;;;;;19.87;18.33;;;11.20;99.90;;;;;;5046040;28;20968;-70
2022/05/31 04:10:30;;;;;;;20.20;17.83;;;11.20;99.90;;;;;;5046757;28;21155;-68
2022/05/31 04:12:58;;;;;;;19.80;18.17;;;11.30;99.90;;;;;;5045725;28;20477;-68
2022/05/31 04:15:26;;;;;;;19.67;17.00;;;11.30;99.90;;;;;;5046229;28;20478;-69
2022/05/31 04:17:54;;;;;;;19.67;17.93;;;11.30;99.90;;;;;;5045433;28;20947;-68
2022/05/31 04:20:21;;;;;;;17.87;16.60;;;11.30;99.90;;;;;;5046197;28;20467;-68
2022/05/31 04:22:48;;;;;;;18.00;16.53;;;11.30;99.90;;;;;;5047371;28;20516;-69
2022/05/31 04:25:15;;;;;;;17.43;16.13;;;11.40;99.90;;;;;;5046389;28;20459;-68
2022/05/31 04:27:42;;;;;;;18.23;16.67;;;11.50;99.90;;;;;;5046188;28;20469;-68
2022/05/31 04:30:10;;;;;;;17.80;16.33;;;11.40;99.90;;;;;;5046408;28;20482;-68
2022/05/31 04:32:37;;;;;;;17.70;16.40;;;11.40;99.90;;;;;;5044872;28;20825;-70
2022/05/31 04:35:07;;;;;;;17.60;15.83;;;11.40;99.90;;;;;;5046241;28;20830;-70
2022/05/31 04:37:34;;;;;;;15.90;14.70;;;11.40;99.90;;;;;;5051105;28;20859;-67
2022/05/31 04:40:01;;;;;;;17.00;15.63;;;11.40;99.90;;;;;;5050937;28;20561;-68
2022/05/31 04:42:28;;;;;;;26.33;16.17;;;11.40;99.90;;;;;;5049585;28;20739;-69
2022/05/31 04:44:54;;;;;;;17.37;15.80;;;11.40;99.90;;;;;;5049866;28;21340;-68
2022/05/31 04:47:22;;;;;;;16.00;15.00;;;11.50;99.90;;;;;;5049463;28;20872;-68
2022/05/31 04:49:49;;;;;;;18.07;16.20;;;11.60;99.90;;;;;;5050679;28;20603;-69
2022/05/31 04:52:17;;;;;;;19.30;17.30;;;11.60;99.90;;;;;;5050486;28;20507;-67
2022/05/31 04:54:44;;;;;;;19.00;17.60;;;11.50;99.90;;;;;;5049032;28;20471;-67
2022/05/31 04:57:11;;;;;;;17.83;16.63;;;11.50;99.90;;;;;;5050144;28;20470;-69
2022/05/31 04:59:37;;;;;;;19.67;17.70;;;11.50;99.90;;;;;;5050310;28;20458;-67
2022/05/31 05:02:04;;;;;;;17.73;15.80;;;11.40;99.90;;;;;;5048532;28;20478;-68
2022/05/31 05:04:31;;;;;;;18.50;16.00;;;11.30;99.90;;;;;;5049652;28;20466;-67
2022/05/31 05:06:58;;;;;;;17.40;16.10;;;11.30;99.90;;;;;;5049196;28;20454;-67
2022/05/31 05:09:27;;;;;;;18.93;17.03;;;11.20;99.90;;;;;;5049050;28;21231;-68
2022/05/31 05:11:53;;;;;;;28.73;25.53;;;11.20;99.90;;;;;;5050852;28;20664;-69
2022/05/31 05:14:20;;;;;;;33.87;30.80;;;11.10;99.90;;;;;;5050460;28;20726;-68
2022/05/31 05:16:47;;;;;;;33.50;30.50;;;11.10;99.90;;;;;;5048353;28;20476;-68
2022/05/31 05:19:14;;;;;;;39.80;32.13;;;11.00;99.90;;;;;;5047811;28;21412;-68
2022/05/31 05:21:41;;;;;;;32.80;29.87;;;11.00;99.90;;;;;;5049308;28;20470;-68
2022/05/31 05:24:08;;;;;;;33.60;30.23;;;10.90;99.90;;;;;;5047741;28;20506;-68
2022/05/31 05:26:37;;;;;;;32.93;30.17;;;10.80;99.90;;;;;;5049522;28;20969;-68
2022/05/31 05:31:52;;;;;;;33.83;30.60;;;10.80;99.90;;;;;;5048354;28;20579;-68
2022/05/31 05:34:20;;;;;;;32.60;29.70;;;10.80;99.90;;;;;;5047713;28;20463;-67
2022/05/31 05:36:46;;;;;;;37.03;29.87;;;10.80;99.90;;;;;;5049685;28;20704;-67
2022/05/31 05:39:13;;;;;;;34.33;30.70;;;10.80;99.90;;;;;;5048084;28;20630;-68
2022/05/31 05:41:41;;;;;;;38.23;34.17;;;10.70;99.90;;;;;;5048480;28;20463;-67
2022/05/31 05:44:09;;;;;;;36.40;32.23;;;10.60;99.90;;;;;;5047026;28;21028;-67
2022/05/31 05:46:36;;;;;;;32.93;30.33;;;10.50;99.90;;;;;;5047456;28;20558;-66
2022/05/31 05:49:03;;;;;;;30.80;28.23;;;10.50;99.90;;;;;;5049520;28;20477;-68
2022/05/31 05:51:31;;;;;;;31.00;28.40;;;10.20;99.90;;;;;;5049805;28;20862;-68
2022/05/31 05:54:01;;;;;;;30.57;27.47;;;10.30;99.90;;;;;;5048912;28;20470;-68
2022/05/31 05:56:28;;;;;;;31.70;29.00;;;10.30;99.90;;;;;;5049332;28;20589;-67
2022/05/31 05:58:56;;;;;;;30.23;27.90;;;10.40;99.90;;;;;;5048526;28;20465;-68
2022/05/31 06:01:30;;;;;;;31.33;28.37;;;10.40;99.90;;;;;;5045551;28;20475;-67
2022/05/31 06:04:02;;;;;;;31.17;28.63;;;10.50;99.90;;;;;;5044587;28;20459;-68
2022/05/31 06:06:32;;;;;;;32.87;29.83;;;10.50;99.90;;;;;;5047461;28;20635;-67
2022/05/31 06:09:03;;;;;;;30.80;28.00;;;10.70;99.90;;;;;;5045985;28;20529;-67
2022/05/31 06:11:36;;;;;;;30.17;27.70;;;10.90;99.90;;;;;;5046764;28;21072;-67
2022/05/31 06:14:16;;;;;;;32.13;29.07;;;11.00;99.90;;;;;;5045170;28;20458;-67
2022/05/31 06:16:47;;;;;;;32.50;29.00;;;11.00;99.90;;;;;;5047007;28;20458;-67
2022/05/31 06:19:17;;;;;;;34.53;31.13;;;11.10;99.90;;;;;;5046051;28;20451;-66
2022/05/31 06:21:45;;;;;;;33.57;30.67;;;11.20;99.90;;;;;;5048148;28;20471;-67
2022/05/31 06:24:12;;;;;;;31.70;29.00;;;11.20;99.90;;;;;;5046798;28;21074;-68
2022/05/31 06:26:39;;;;;;;32.17;29.13;;;11.40;99.90;;;;;;5049880;28;20474;-67
2022/05/31 06:29:08;;;;;;;31.00;28.57;;;11.50;99.90;;;;;;5071540;28;20450;-67
2022/05/31 06:31:35;;;;;;;32.07;29.30;;;11.60;99.90;;;;;;5076423;28;20493;-67
2022/05/31 06:34:02;;;;;;;29.93;27.33;;;11.80;99.90;;;;;;5077356;28;20524;-66
2022/05/31 06:36:29;;;;;;;32.50;29.50;;;12.00;99.90;;;;;;5069438;28;20459;-68
2022/05/31 06:38:56;;;;;;;31.17;28.20;;;12.20;99.90;;;;;;5047159;28;20951;-67
2022/05/31 06:41:23;;;;;;;30.17;27.57;;;12.30;99.90;;;;;;5047044;28;20471;-66
2022/05/31 06:43:50;;;;;;;31.13;28.43;;;12.50;99.90;;;;;;5047686;28;20462;-67
2022/05/31 06:46:19;;;;;;;29.13;26.60;;;12.60;99.90;;;;;;5046893;28;21098;-66
2022/05/31 06:48:46;;;;;;;30.03;27.40;;;12.70;99.90;;;;;;5045155;28;21077;-68
2022/05/31 06:56:47;;;;;;;27.30;24.90;;;12.70;99.90;;;;;;5045616;28;20742;-67
2022/05/31 06:56:50;;;;;;;25.40;23.20;;;13.30;99.90;;;;;;5047118;28;20546;-66
2022/05/31 06:59:17;;;;;;;23.73;21.67;;;13.60;99.90;;;;;;5048486;28;21035;-67
2022/05/31 07:01:47;;;;;;;24.20;22.00;;;13.90;99.90;;;;;;5057946;28;20482;-67
2022/05/31 07:04:14;;;;;;;23.57;21.20;;;14.10;99.90;;;;;;5038598;28;20557;-67
2022/05/31 07:06:41;;;;;;;23.37;21.67;;;14.30;99.90;;;;;;5043657;28;20469;-67
2022/05/31 07:09:08;;;;;;;23.87;21.43;;;14.30;99.90;;;;;;5042976;28;20819;-67
2022/05/31 07:11:36;;;;;;;24.30;22.00;;;14.50;99.90;;;;;;5042459;28;20493;-67
2022/05/31 07:14:03;;;;;;;29.20;22.50;;;14.80;99.90;;;;;;5044688;28;20466;-68
2022/05/31 07:16:29;;;;;;;24.83;22.53;;;15.20;99.90;;;;;;5044469;28;20474;-68
2022/05/31 07:18:58;;;;;;;25.27;23.10;;;15.40;99.90;;;;;;5042637;28;20471;-68
2022/05/31 07:21:25;;;;;;;25.37;23.23;;;15.40;99.90;;;;;;5043629;28;20462;-67
2022/05/31 07:23:53;;;;;;;25.60;23.27;;;15.50;99.90;;;;;;5044230;28;20700;-65
2022/05/31 07:26:21;;;;;;;25.43;23.43;;;15.70;99.90;;;;;;5042621;28;21102;-66
2022/05/31 07:28:48;;;;;;;24.20;22.40;;;16.00;99.90;;;;;;5043799;28;23023;-66
2022/05/31 07:31:15;;;;;;;25.40;23.37;;;16.10;99.90;;;;;;5043662;28;20517;-66
2022/05/31 07:33:42;;;;;;;24.43;22.60;;;16.00;99.90;;;;;;5043030;28;20457;-66
2022/05/31 07:36:10;;;;;;;25.30;23.03;;;15.90;99.90;;;;;;5043204;28;20493;-67
2022/05/31 07:38:37;;;;;;;24.50;22.17;;;16.30;99.90;;;;;;5043251;28;21074;-66
2022/05/31 07:41:04;;;;;;;24.50;22.77;;;16.40;99.90;;;;;;5044876;28;20668;-67
2022/05/31 07:43:31;;;;;;;24.97;22.70;;;16.80;99.90;;;;;;5043392;28;20454;-67
2022/05/31 07:46:05;;;;;;;25.10;23.20;;;16.90;99.90;;;;;;5044264;28;20778;-67
2022/05/31 07:48:32;;;;;;;24.57;22.97;;;16.90;99.90;;;;;;5044869;28;20532;-67
2022/05/31 07:50:59;;;;;;;25.93;23.73;;;16.70;99.90;;;;;;5044573;28;21127;-67
2022/05/31 07:53:28;;;;;;;24.50;22.63;;;16.80;99.90;;;;;;5042463;28;20989;-67
2022/05/31 07:55:56;;;;;;;25.00;22.77;;;17.00;99.90;;;;;;5043059;28;20508;-65
2022/05/31 07:58:32;;;;;;;23.57;21.67;;;17.10;99.90;;;;;;5043573;28;20463;-68
2022/05/31 08:00:59;;;;;;;22.87;21.20;;;17.10;99.90;;;;;;5043588;28;20467;-67
2022/05/31 08:03:26;;;;;;;23.77;21.97;;;17.10;99.90;;;;;;5044214;28;20463;-67
2022/05/31 08:05:53;;;;;;;22.50;21.00;;;16.90;99.90;;;;;;5043715;28;20459;-67
2022/05/31 08:08:20;;;;;;;23.93;22.03;;;16.80;99.90;;;;;;5044085;28;20471;-68
2022/05/31 08:10:49;;;;;;;22.80;20.70;;;16.70;99.90;;;;;;5046197;28;20506;-67
2022/05/31 08:13:16;;;;;;;22.70;21.10;;;16.60;99.90;;;;;;5046014;28;20594;-68
2022/05/31 08:15:43;;;;;;;22.43;21.03;;;16.60;99.90;;;;;;5048087;28;20585;-66
2022/05/31 08:18:10;;;;;;;22.50;20.97;;;17.00;99.90;;;;;;5047537;28;20454;-66
2022/05/31 08:20:39;;;;;;;21.80;20.30;;;17.20;99.90;;;;;;5047629;28;20455;-67
2022/05/31 08:23:06;;;;;;;22.53;20.90;;;17.40;99.90;;;;;;5047487;28;20471;-67
2022/05/31 08:25:36;;;;;;;21.23;19.83;;;17.10;99.90;;;;;;5047214;28;20477;-66
2022/05/31 08:28:04;;;;;;;22.07;19.93;;;17.00;99.90;;;;;;5045152;28;20917;-67
2022/05/31 08:30:31;;;;;;;20.40;19.07;;;17.10;99.90;;;;;;5046375;28;20492;-66
2022/05/31 08:32:58;;;;;;;20.87;19.60;;;17.00;99.90;;;;;;5047572;28;21326;-68
2022/05/31 08:35:25;;;;;;;25.07;18.50;;;17.10;99.90;;;;;;5047659;28;20470;-67
2022/05/31 08:37:51;;;;;;;20.80;19.40;;;17.40;99.90;;;;;;5047344;28;20465;-66
2022/05/31 08:40:20;;;;;;;20.03;18.50;;;18.30;99.90;;;;;;5046018;28;21053;-66
2022/05/31 08:42:52;;;;;;;20.20;18.70;;;18.90;99.90;;;;;;5047170;28;22362;-69
2022/05/31 08:45:32;;;;;;;20.00;18.60;;;18.90;99.90;;;;;;5045606;28;20462;-66
2022/05/31 08:48:04;;;;;;;19.93;18.50;;;19.00;99.90;;;;;;5046443;28;20585;-66
2022/05/31 08:53:26;;;;;;;19.17;18.00;;;20.70;99.90;;;;;;5046288;28;22469;-66
2022/05/31 08:58:47;;;;;;;21.43;19.10;;;21.50;99.90;;;;;;5077138;28;20457;-66
2022/05/31 09:01:19;;;;;;;19.30;18.10;;;21.90;99.90;;;;;;5063207;28;20543;-66
2022/05/31 09:03:49;;;;;;;19.13;18.03;;;21.80;99.90;;;;;;5046609;28;20474;-67
2022/05/31 09:06:21;;;;;;;18.90;17.57;;;22.40;98.70;;;;;;5047108;28;20488;-66
2022/05/31 09:08:57;;;;;;;19.27;17.70;;;22.80;96.10;;;;;;5046925;28;20469;-67
2022/05/31 09:11:28;;;;;;;19.23;17.70;;;23.10;96.10;;;;;;5045944;28;20520;-67
2022/05/31 09:14:01;;;;;;;19.50;17.90;;;23.30;95.70;;;;;;5045698;28;20467;-67
2022/05/31 09:16:42;;;;;;;23.13;17.30;;;22.40;96.20;;;;;;5046282;28;20463;-67
2022/05/31 09:19:14;;;;;;;19.07;17.20;;;22.30;93.40;;;;;;5045349;28;20482;-66
2022/05/31 09:21:45;;;;;;;18.60;17.60;;;22.00;94.70;;;;;;5045140;28;20466;-66
2022/05/31 09:24:16;;;;;;;18.10;16.90;;;22.80;95.50;;;;;;5045083;28;21045;-67
2022/05/31 09:26:59;;;;;;;18.47;16.90;;;22.60;95.00;;;;;;5046462;28;20965;-67
2022/05/31 09:29:33;;;;;;;17.70;16.80;;;23.20;92.80;;;;;;5046336;28;21183;-67
2022/05/31 09:32:15;;;;;;;17.90;16.90;;;23.60;91.70;;;;;;5045026;28;20529;-67
2022/05/31 09:35:14;;;;;;;17.60;16.50;;;24.20;91.40;;;;;;5046308;28;21074;-67
2022/05/31 09:37:56;;;;;;;18.47;17.27;;;25.00;89.50;;;;;;5045473;28;20473;-67
2022/05/31 09:40:36;;;;;;;18.77;17.33;;;25.10;84.70;;;;;;5046097;28;21164;-68
2022/05/31 09:43:09;;;;;;;19.07;17.70;;;24.80;81.50;;;;;;5054022;28;20857;-69
2022/05/31 09:45:42;;;;;;;16.73;15.83;;;25.00;86.70;;;;;;5045069;28;20487;-68
2022/05/31 09:48:11;;;;;;;17.43;16.33;;;26.00;81.90;;;;;;5045418;28;20957;-69
2022/05/31 09:50:38;;;;;;;17.17;16.07;;;26.20;75.10;;;;;;5046719;28;20940;-68
2022/05/31 09:57:05;;;;;;;17.20;16.10;;;25.80;77.00;;;;;;5045409;28;20491;-70
2022/05/31 09:58:38;;;;;;;16.80;15.80;;;24.30;77.00;;;;;;5045346;28;20470;-68
2022/05/31 10:01:23;;;;;;;17.47;16.33;;;24.20;79.70;;;;;;5045193;28;21055;-66
2022/05/31 10:03:54;;;;;;;16.70;15.70;;;23.80;77.20;;;;;;5045298;28;21295;-67
2022/05/31 10:06:23;;;;;;;17.97;16.53;;;24.60;75.90;;;;;;5046220;28;20474;-67
2022/05/31 10:08:52;;;;;;;17.37;16.27;;;24.50;74.90;;;;;;5044803;28;20458;-67
2022/05/31 10:11:24;;;;;;;18.33;16.70;;;25.10;75.80;;;;;;5044728;28;21347;-68
2022/05/31 10:13:57;;;;;;;17.73;16.63;;;25.70;72.70;;;;;;5045844;28;20471;-67
2022/05/31 10:16:26;;;;;;;17.30;16.33;;;25.60;72.90;;;;;;5044993;28;20648;-67
2022/05/31 10:18:56;;;;;;;17.90;16.37;;;24.80;74.30;;;;;;5044620;28;21200;-69
2022/05/31 10:21:32;;;;;;;17.80;16.57;;;26.00;73.20;;;;;;5046252;28;20459;-69
2022/05/31 10:24:08;;;;;;;17.00;16.10;;;26.50;72.40;;;;;;5045928;28;20454;-66
2022/05/31 10:26:38;;;;;;;17.27;16.20;;;26.90;64.80;;;;;;5044220;28;20462;-66
2022/05/31 10:29:15;;;;;;;16.93;15.97;;;27.60;65.90;;;;;;5045866;28;20901;-66
2022/05/31 10:31:45;;;;;;;17.47;16.00;;;28.00;58.40;;;;;;5044042;28;20494;-68
2022/05/31 10:34:34;;;;;;;17.70;16.60;;;27.30;61.90;;;;;;5043308;28;20487;-66
2022/05/31 10:37:04;;;;;;;16.57;15.57;;;26.60;63.90;;;;;;5044336;28;20467;-67
2022/05/31 10:39:34;;;;;;;17.00;15.90;;;27.50;61.50;;;;;;5044818;28;20737;-68
2022/05/31 10:42:02;;;;;;;16.00;14.90;;;27.70;56.90;;;;;;5044019;28;20470;-67
2022/05/31 10:44:33;;;;;;;15.93;14.93;;;27.20;57.20;;;;;;5042895;28;20878;-65
2022/05/31 10:47:03;;;;;;;18.10;15.97;;;26.60;56.20;;;;;;5045077;28;21587;-68
2022/05/31 10:49:32;;;;;;;16.40;15.40;;;26.00;59.70;;;;;;5043480;28;20465;-68
2022/05/31 10:52:07;;;;;;;16.00;14.97;;;26.20;59.30;;;;;;5044176;28;20493;-68
2022/05/31 10:54:49;;;;;;;15.83;14.93;;;26.30;57.80;;;;;;5043965;28;21033;-67
2022/05/31 10:57:39;;;;;;;16.00;15.10;;;26.10;56.40;;;;;;5044151;28;21140;-67
2022/05/31 11:00:09;;;;;;;16.27;15.17;;;27.30;55.30;;;;;;5043513;28;20467;-68
2022/05/31 11:03:12;;;;;;;15.97;14.87;;;28.40;54.60;;;;;;5040871;28;21322;-69
2022/05/31 11:06:08;;;;;;;16.67;15.67;;;28.10;54.00;;;;;;5036139;27;21054;-69
2022/05/31 11:11:45;;;;;;;18.33;17.13;;;28.30;51.20;;;;;;5056191;28;20512;-70
2022/05/31 11:14:25;;;;;;;17.10;15.90;;;27.70;51.30;;;;;;5038264;28;22481;-70
2022/05/31 11:17:03;;;;;;;17.03;16.13;;;27.00;50.00;;;;;;5041059;28;20463;-70
2022/05/31 11:19:41;;;;;;;17.97;16.80;;;26.90;51.60;;;;;;5040997;28;20889;-71
2022/05/31 11:22:32;;;;;;;17.47;16.37;;;27.50;53.10;;;;;;5038348;28;20474;-70
2022/05/31 11:25:41;;;;;;;16.23;15.33;;;26.90;50.30;;;;;;5039739;28;20487;-69
2022/05/31 11:28:20;;;;;;;16.37;15.37;;;27.10;49.80;;;;;;4995367;28;20465;-72
2022/05/31 11:31:03;;;;;;;16.03;15.03;;;26.70;50.90;;;;;;5036702;28;20463;-72
2022/05/31 11:33:43;;;;;;;17.10;16.00;;;25.90;53.10;;;;;;5039548;28;20470;-70
2022/05/31 11:36:20;;;;;;;17.07;16.17;;;25.50;51.20;;;;;;5039933;28;21669;-70
2022/05/31 11:39:00;;;;;;;16.17;15.30;;;25.20;52.00;;;;;;5040549;28;21039;-69
2022/05/31 11:41:35;;;;;;;18.00;16.80;;;25.30;54.30;;;;;;5039047;28;20866;-70
2022/05/31 11:44:32;;;;;;;16.30;15.20;;;25.30;52.00;;;;;;5038128;28;20576;-71
2022/05/31 11:47:08;;;;;;;16.50;15.33;;;24.80;52.40;;;;;;5039613;28;20463;-71
2022/05/31 11:49:44;;;;;;;15.87;14.87;;;26.10;51.70;;;;;;5039875;28;20503;-71
2022/05/31 11:52:24;;;;;;;16.70;15.70;;;27.70;50.00;;;;;;5037798;28;20481;-70
2022/05/31 11:55:32;;;;;;;16.50;15.50;;;28.90;47.40;;;;;;5038740;28;20878;-70
2022/05/31 11:58:21;;;;;;;16.40;15.50;;;28.40;46.60;;;;;;5039463;28;20471;-70
2022/05/31 12:00:59;;;;;;;15.83;15.03;;;26.80;48.90;;;;;;5038540;28;20463;-71
2022/05/31 12:03:32;;;;;;;15.40;14.40;;;26.50;49.30;;;;;;5039656;28;20496;-70
2022/05/31 12:06:06;;;;;;;16.20;14.93;;;26.50;51.00;;;;;;5038660;28;20499;-70
2022/05/31 12:08:38;;;;;;;16.33;15.33;;;26.80;51.90;;;;;;5039455;28;20470;-72
2022/05/31 12:11:13;;;;;;;15.10;14.30;;;28.00;49.00;;;;;;5038865;28;20502;-70
2022/05/31 12:13:44;;;;;;;16.47;15.07;;;27.60;47.70;;;;;;5039537;28;20466;-70
2022/05/31 12:16:13;;;;;;;15.87;14.97;;;27.50;47.20;;;;;;5031616;28;20467;-69
2022/05/31 12:18:49;;;;;;;14.97;14.07;;;27.40;49.60;;;;;;5025158;28;21020;-71
2022/05/31 12:21:23;;;;;;;14.70;14.00;;;26.60;48.30;;;;;;5025155;28;20601;-69
2022/05/31 12:23:57;;;;;;;15.73;14.90;;;26.70;46.30;;;;;;5025339;28;20904;-69
2022/05/31 12:26:33;;;;;;;14.50;13.80;;;27.00;46.00;;;;;;5026219;28;20677;-70
2022/05/31 12:29:12;;;;;;;15.13;14.23;;;26.60;45.20;;;;;;5026188;28;20510;-68
2022/05/31 12:31:40;;;;;;;15.07;14.37;;;26.10;44.50;;;;;;5025859;28;20495;-70
2022/05/31 12:34:40;;;;;;;14.87;13.87;;;26.30;46.30;;;;;;5024358;28;20471;-69
2022/05/31 12:37:09;;;;;;;15.40;14.53;;;26.40;46.30;;;;;;5041188;28;21102;-72
2022/05/31 12:39:37;;;;;;;15.00;14.03;;;27.30;46.80;;;;;;5036538;28;20465;-69
2022/05/31 12:42:40;;;;;;;15.40;14.60;;;27.40;45.40;;;;;;5040023;28;20806;-68
2022/05/31 12:45:17;;;;;;;15.57;14.60;;;29.20;43.20;;;;;;5024572;28;20511;-70
2022/05/31 12:47:51;;;;;;;15.13;14.23;;;30.70;43.80;;;;;;5025271;28;20472;-69
2022/05/31 12:51:00;;;;;;;15.20;14.30;;;30.20;42.50;;;;;;5021788;28;20467;-70
2022/05/31 12:54:00;;;;;;;16.43;14.20;;;31.50;41.20;;;;;;5021230;28;20525;-69
2022/05/31 12:56:40;;;;;;;16.53;15.23;;;30.90;40.20;;;;;;5022969;28;20585;-69
2022/05/31 12:59:08;;;;;;;15.27;14.57;;;30.90;38.60;;;;;;5023795;28;20462;-68
2022/05/31 13:01:46;;;;;;;15.30;14.40;;;30.90;39.40;;;;;;5022771;28;20603;-69
2022/05/31 13:04:28;;;;;;;14.97;14.17;;;30.70;39.50;;;;;;5022910;28;20809;-68
2022/05/31 13:07:08;;;;;;;15.10;14.20;;;29.70;38.70;;;;;;5037281;28;20468;-68
2022/05/31 13:09:40;;;;;;;15.20;14.40;;;30.00;38.50;;;;;;5043251;28;20466;-70